Time;durP1;ratioP1;P1;durP2;ratioP2;P2;SDS_P1;SDS_P2;PMS_P1;PMS_P2;Temp;Humidity;BMP_temperature;BMP_pressure;BME280_temperature;BME280_humidity;BME280_pressure;Samples;Min_cycle;Max_cycle;Signal;HPM_P1;HPM_P2
2022/11/24 00:02:19;;;;;;;8.02;1.58;;;;;;;6.52;92.82;100212.53;5025917;28;20025;-78
2022/11/24 00:04:44;;;;;;;10.65;1.70;;;;;;;6.52;92.98;100212.53;5028758;28;20080;-78
2022/11/24 00:07:10;;;;;;;7.93;2.20;;;;;;;6.50;92.80;100216.84;5032287;28;20082;-77
2022/11/24 00:09:35;;;;;;;5.72;1.45;;;;;;;6.51;93.03;100210.81;5030549;28;20020;-78
2022/11/24 00:12:00;;;;;;;9.07;1.73;;;;;;;6.51;92.85;100220.31;5027471;28;20461;-78
2022/11/24 00:14:26;;;;;;;7.95;1.70;;;;;;;6.50;93.06;100224.63;5028409;28;20057;-78
2022/11/24 00:16:51;;;;;;;9.70;1.75;;;;;;;6.48;93.13;100215.19;5029183;28;20159;-78
2022/11/24 00:19:17;;;;;;;8.30;1.95;;;;;;;6.47;93.19;100222.13;5033460;28;20036;-78
2022/11/24 00:21:42;;;;;;;8.40;1.90;;;;;;;6.47;93.05;100226.41;5031351;28;20030;-77
2022/11/24 00:24:08;;;;;;;8.70;1.75;;;;;;;6.45;92.57;100226.47;5030903;28;20025;-77
2022/11/24 00:26:36;;;;;;;11.85;1.80;;;;;;;6.44;92.82;100234.22;5032150;28;20158;-78
2022/11/24 00:29:04;;;;;;;10.02;1.88;;;;;;;6.42;92.87;100234.25;5034151;28;20112;-77
2022/11/24 00:31:33;;;;;;;8.82;1.70;;;;;;;6.40;92.60;100233.44;5034295;28;20064;-77
2022/11/24 00:34:01;;;;;;;9.98;1.80;;;;;;;6.40;92.49;100242.94;5029554;28;20032;-78
2022/11/24 00:36:28;;;;;;;7.50;1.95;;;;;;;6.38;92.79;100240.34;5031380;28;20021;-77
2022/11/24 00:38:56;;;;;;;5.50;1.33;;;;;;;6.38;92.63;100240.34;5032432;28;20025;-78
2022/11/24 00:41:23;;;;;;;7.43;1.80;;;;;;;6.40;92.71;100243.75;5031569;28;20030;-78
2022/11/24 00:43:48;;;;;;;10.55;1.67;;;;;;;6.40;92.96;100243.75;5030100;28;20024;-78
2022/11/24 00:46:14;;;;;;;6.32;1.70;;;;;;;6.40;92.52;100243.75;5031182;28;20104;-78
2022/11/24 00:48:39;;;;;;;6.25;1.45;;;;;;;6.41;92.66;100248.06;5032798;28;20086;-78
2022/11/24 00:51:07;;;;;;;7.22;1.63;;;;;;;6.40;92.63;100240.34;5032046;28;20071;-78
2022/11/24 00:53:33;;;;;;;9.88;1.70;;;;;;;6.38;92.65;100241.22;5032862;28;20193;-77
2022/11/24 00:55:59;;;;;;;9.50;1.55;;;;;;;6.35;92.49;100240.41;5030628;28;20540;-78
2022/11/24 00:58:24;;;;;;;7.13;1.60;;;;;;;6.34;92.43;100239.56;5030684;28;20040;-77
2022/11/24 01:00:51;;;;;;;8.95;1.52;;;;;;;6.34;92.53;100243.88;5027683;28;20034;-78
2022/11/24 01:03:19;;;;;;;8.77;1.50;;;;;;;6.33;92.78;100249.91;5022394;28;20310;-77
2022/11/24 01:05:44;;;;;;;7.25;1.70;;;;;;;6.31;92.53;100246.53;5028022;28;20480;-77
2022/11/24 01:08:10;;;;;;;14.05;1.70;;;;;;;6.31;92.60;100262.03;5030389;28;20040;-77
2022/11/24 01:10:36;;;;;;;8.98;1.40;;;;;;;6.29;92.63;100259.44;5028921;28;20060;-78
2022/11/24 01:13:02;;;;;;;9.45;1.60;;;;;;;6.28;92.58;100264.66;5028659;28;20073;-78
2022/11/24 01:15:29;;;;;;;8.70;1.80;;;;;;;6.27;92.70;100258.63;5026559;28;20033;-77
2022/11/24 01:17:54;;;;;;;7.07;1.50;;;;;;;6.26;92.43;100267.25;5025583;28;20036;-77
2022/11/24 01:20:20;;;;;;;8.60;1.52;;;;;;;6.25;92.65;100269.88;5027210;28;20029;-77
2022/11/24 01:22:46;;;;;;;8.98;1.63;;;;;;;6.21;92.70;100269.91;5030463;28;20063;-77
2022/11/24 01:25:12;;;;;;;5.70;1.33;;;;;;;6.21;92.61;100276.81;5028356;28;20033;-77
2022/11/24 01:27:37;;;;;;;7.60;1.60;;;;;;;6.20;92.54;100272.53;5025020;28;20030;-77
2022/11/24 01:30:04;;;;;;;9.10;1.58;;;;;;;6.20;92.84;100275.13;5030231;28;20484;-77
2022/11/24 01:32:32;;;;;;;7.75;1.67;;;;;;;6.20;92.58;100275.13;5029113;28;20025;-78
2022/11/24 01:34:57;;;;;;;8.35;1.23;;;;;;;6.20;92.82;100277.69;5023465;28;20108;-77
2022/11/24 01:37:23;;;;;;;11.02;1.90;;;;;;;6.19;92.65;100276.84;5025305;28;20120;-77
2022/11/24 01:39:48;;;;;;;7.95;1.40;;;;;;;6.19;92.60;100279.41;5028957;28;20476;-77
2022/11/24 01:42:13;;;;;;;7.45;1.42;;;;;;;6.18;92.52;100280.28;5029958;28;20041;-77
2022/11/24 01:44:41;;;;;;;8.80;1.80;;;;;;;6.18;92.71;100285.47;5022932;28;20025;-77
2022/11/24 01:47:27;;;;;;;8.52;1.60;;;;;;;6.19;92.46;100296.66;5030984;28;20044;-77
2022/11/24 01:49:56;;;;;;;9.00;1.40;;;;;;;6.16;92.45;100282.03;5027890;28;20473;-77
2022/11/24 01:52:47;;;;;;;7.55;1.30;;;;;;;6.17;92.50;100295.84;5025636;28;20025;-78
2022/11/24 01:55:19;;;;;;;7.40;1.42;;;;;;;6.15;92.46;100301.00;5032307;28;20033;-78
2022/11/24 01:58:09;;;;;;;5.43;1.25;;;;;;;6.16;92.71;100297.53;5025803;28;21238;-78
2022/11/24 02:00:37;;;;;;;7.72;1.60;;;;;;;6.17;92.64;100299.25;5029033;28;20085;-77
2022/11/24 02:03:02;;;;;;;7.85;1.40;;;;;;;6.18;92.78;100300.13;5026351;28;20024;-77
2022/11/24 02:05:54;;;;;;;7.95;1.60;;;;;;;6.19;92.78;100300.09;5023706;28;20025;-78
2022/11/24 02:08:38;;;;;;;7.30;1.52;;;;;;;6.22;92.70;100302.63;5023460;28;20071;-77
2022/11/24 02:11:04;;;;;;;8.52;1.60;;;;;;;6.25;92.46;100303.44;5017834;28;20029;-77
2022/11/24 02:13:33;;;;;;;8.70;1.88;;;;;;;6.26;92.80;100307.75;5023951;28;20401;-77
2022/11/24 02:15:58;;;;;;;8.88;1.58;;;;;;;6.25;92.69;100306.03;5028831;28;20036;-78
2022/11/24 02:18:24;;;;;;;8.82;1.60;;;;;;;6.25;92.52;100311.19;5026274;28;20026;-78
2022/11/24 02:20:49;;;;;;;11.50;1.40;;;;;;;6.24;92.21;100310.34;5026524;28;20070;-77
2022/11/24 02:23:26;;;;;;;8.95;1.58;;;;;;;6.26;92.28;100312.91;5026070;28;20064;-77
2022/11/24 02:26:16;;;;;;;6.07;1.30;;;;;;;6.27;92.31;100317.19;5027173;28;20066;-77
2022/11/24 02:28:41;;;;;;;6.30;1.40;;;;;;;6.25;92.37;100316.38;5025095;28;20029;-77
2022/11/24 02:31:07;;;;;;;6.22;1.60;;;;;;;6.21;92.35;100316.41;5019918;28;20565;-77
2022/11/24 02:33:34;;;;;;;8.00;1.60;;;;;;;6.20;92.19;100321.63;5023603;28;20029;-78
2022/11/24 02:35:59;;;;;;;8.25;1.40;;;;;;;6.17;92.52;100319.91;5029410;28;20400;-78
2022/11/24 02:38:33;;;;;;;9.90;1.40;;;;;;;6.17;92.41;100326.81;5019967;28;20033;-77
2022/11/24 02:41:04;;;;;;;7.40;1.40;;;;;;;6.15;92.23;100331.16;5026814;28;20389;-77
2022/11/24 02:43:34;;;;;;;7.10;1.50;;;;;;;6.13;92.41;100338.94;5028163;28;20134;-77
2022/11/24 02:45:59;;;;;;;8.68;1.95;;;;;;;6.12;92.66;100337.22;5028315;28;20041;-78
2022/11/24 02:48:25;;;;;;;8.95;1.50;;;;;;;6.11;92.51;100332.94;5023343;28;20021;-78
2022/11/24 02:50:50;;;;;;;7.28;1.38;;;;;;;6.12;92.66;100337.22;5027766;28;20037;-78
2022/11/24 02:53:15;;;;;;;6.72;1.30;;;;;;;6.11;92.33;100325.19;5031372;28;20483;-78
2022/11/24 02:55:41;;;;;;;8.30;1.67;;;;;;;6.12;92.30;100329.47;5029910;28;20033;-77
2022/11/24 02:58:06;;;;;;;8.35;1.40;;;;;;;6.14;92.42;100327.72;5030420;28;20022;-77
2022/11/24 03:00:31;;;;;;;7.15;1.75;;;;;;;6.16;92.54;100332.88;5030240;28;20396;-78
2022/11/24 03:02:57;;;;;;;7.55;1.52;;;;;;;6.17;92.56;100343.16;5029875;28;20164;-77
2022/11/24 03:05:23;;;;;;;8.45;1.40;;;;;;;6.19;92.64;100341.41;5028859;28;20033;-77
2022/11/24 03:07:48;;;;;;;6.10;1.50;;;;;;;6.21;92.78;100331.06;5027170;28;20022;-78
2022/11/24 03:10:14;;;;;;;11.25;2.03;;;;;;;6.22;92.63;100336.19;5028921;28;20037;-77
2022/11/24 03:12:39;;;;;;;8.60;1.55;;;;;;;6.26;92.79;100337.00;5028979;28;20017;-77
2022/11/24 03:15:05;;;;;;;8.68;1.80;;;;;;;6.30;92.74;100341.25;5034087;28;20029;-77
2022/11/24 03:17:30;;;;;;;8.15;1.60;;;;;;;6.34;93.10;100342.03;5029129;28;20045;-78
2022/11/24 03:19:56;;;;;;;11.38;1.55;;;;;;;6.36;93.07;100345.44;5030396;28;20104;-77
2022/11/24 03:22:21;;;;;;;10.27;2.40;;;;;;;6.39;92.93;100345.41;5025591;28;20028;-77
2022/11/24 03:24:47;;;;;;;8.68;1.85;;;;;;;6.40;93.09;100347.13;5030247;28;20496;-78
2022/11/24 03:27:12;;;;;;;9.63;1.95;;;;;;;6.38;92.89;100339.41;5029876;28;20021;-77
2022/11/24 03:29:37;;;;;;;10.73;2.20;;;;;;;6.40;92.83;100346.28;5031861;28;20022;-78
2022/11/24 03:32:03;;;;;;;9.02;1.75;;;;;;;6.40;92.97;100344.53;5020716;28;20128;-77
2022/11/24 03:34:28;;;;;;;8.20;1.52;;;;;;;6.42;93.01;100347.94;5032030;28;20485;-77
2022/11/24 03:36:53;;;;;;;6.05;1.50;;;;;;;6.44;93.07;100348.78;5031900;28;20040;-77
2022/11/24 03:39:19;;;;;;;8.63;1.65;;;;;;;6.47;93.19;100353.91;5032404;28;20032;-77
2022/11/24 03:41:44;;;;;;;10.25;2.33;;;;;;;6.52;93.02;100356.41;5025003;28;20539;-77
2022/11/24 03:44:09;;;;;;;10.93;1.70;;;;;;;6.56;92.90;100364.94;5025760;28;20027;-77
2022/11/24 03:46:35;;;;;;;10.63;1.80;;;;;;;6.58;92.54;100358.84;5031587;28;20052;-77
2022/11/24 03:49:00;;;;;;;12.63;2.20;;;;;;;6.59;92.59;100363.16;5022031;28;20049;-77
2022/11/24 03:51:25;;;;;;;11.95;2.05;;;;;;;6.61;92.70;100365.72;5027179;28;20061;-77
2022/11/24 03:53:51;;;;;;;12.32;1.95;;;;;;;6.63;92.79;100366.56;5024752;28;20037;-77
2022/11/24 03:56:16;;;;;;;10.07;1.90;;;;;;;6.64;92.79;100371.69;5028400;28;20029;-77
2022/11/24 03:58:41;;;;;;;13.73;2.10;;;;;;;6.63;92.81;100363.97;5028276;28;20380;-78
2022/11/24 04:01:07;;;;;;;8.50;1.75;;;;;;;6.66;92.55;100362.19;5032148;28;20075;-77
2022/11/24 04:03:32;;;;;;;7.57;1.48;;;;;;;6.67;92.42;100370.78;5031024;28;20026;-77
2022/11/24 04:05:57;;;;;;;11.05;1.65;;;;;;;6.68;92.71;100367.31;5032425;28;20104;-77
2022/11/24 04:08:23;;;;;;;11.32;1.65;;;;;;;6.70;92.77;100373.31;5026660;28;20066;-77
2022/11/24 04:10:50;;;;;;;13.32;1.77;;;;;;;6.72;92.60;100371.56;5028383;28;20426;-77
2022/11/24 04:13:17;;;;;;;11.15;1.80;;;;;;;6.73;92.52;100370.69;5026464;28;20048;-77
2022/11/24 04:15:43;;;;;;;10.38;1.90;;;;;;;6.76;92.80;100370.63;5020089;28;20473;-77
2022/11/24 04:18:10;;;;;;;13.63;2.08;;;;;;;6.77;92.33;100376.63;5029907;28;20032;-77
2022/11/24 04:20:35;;;;;;;8.70;1.88;;;;;;;6.76;92.41;100370.63;5028383;28;20079;-77
2022/11/24 04:23:01;;;;;;;10.90;1.98;;;;;;;6.76;92.29;100375.81;5032058;28;20021;-77
2022/11/24 04:25:27;;;;;;;9.52;2.22;;;;;;;6.74;92.29;100382.72;5028208;28;20494;-78
2022/11/24 04:27:54;;;;;;;11.43;1.90;;;;;;;6.74;92.28;100384.47;5028284;28;20104;-77
2022/11/24 04:30:21;;;;;;;9.45;2.00;;;;;;;6.74;92.10;100387.91;5023378;28;20028;-77
2022/11/24 04:32:46;;;;;;;7.75;1.85;;;;;;;6.76;92.33;100390.44;5029783;28;20318;-77
2022/11/24 04:35:12;;;;;;;10.68;2.00;;;;;;;6.79;92.41;100392.97;5017289;28;20039;-77
2022/11/24 04:37:37;;;;;;;10.30;1.90;;;;;;;6.82;92.22;100396.38;5032138;28;20029;-77
2022/11/24 04:40:05;;;;;;;9.98;1.95;;;;;;;6.86;92.25;100412.69;5032066;28;21690;-77
2022/11/24 04:42:30;;;;;;;9.35;1.83;;;;;;;6.90;92.65;100424.69;5032640;28;20029;-78
2022/11/24 04:44:55;;;;;;;12.13;2.10;;;;;;;6.95;92.58;100427.19;5030771;28;20022;-78
2022/11/24 04:47:23;;;;;;;11.75;2.33;;;;;;;6.98;92.47;100432.31;5030346;28;20045;-78
2022/11/24 04:49:49;;;;;;;14.23;2.30;;;;;;;6.99;92.79;100429.69;5027012;28;20057;-78
2022/11/24 04:52:21;;;;;;;10.27;2.03;;;;;;;6.99;92.36;100434.03;5030579;28;20053;-78
2022/11/24 04:54:47;;;;;;;13.77;1.73;;;;;;;6.97;92.57;100431.44;5028952;28;20071;-78
2022/11/24 04:57:17;;;;;;;6.88;1.42;;;;;;;6.96;92.96;100434.06;5031244;28;20091;-78
2022/11/24 04:59:43;;;;;;;11.23;1.85;;;;;;;6.94;93.12;100436.66;5031568;28;20614;-78
2022/11/24 05:02:08;;;;;;;12.68;1.80;;;;;;;6.93;93.29;100434.97;5030991;28;20034;-78
2022/11/24 05:04:33;;;;;;;9.48;2.00;;;;;;;6.93;93.50;100434.13;5031301;28;20545;-78
2022/11/24 05:06:59;;;;;;;10.98;1.80;;;;;;;6.91;93.32;100434.16;5033065;28;20468;-78
2022/11/24 05:09:24;;;;;;;9.93;1.63;;;;;;;6.89;93.44;100427.28;5030889;28;20036;-78
2022/11/24 05:11:49;;;;;;;8.90;1.80;;;;;;;6.87;93.40;100440.25;5028632;28;20029;-78
2022/11/24 05:14:15;;;;;;;8.18;1.73;;;;;;;6.86;93.31;100441.13;5028808;28;20141;-78
2022/11/24 05:16:40;;;;;;;8.63;1.40;;;;;;;6.86;93.07;100448.03;5029400;28;20018;-78
2022/11/24 05:19:05;;;;;;;8.57;1.52;;;;;;;6.86;92.94;100446.31;5026119;28;20043;-78
2022/11/24 05:21:30;;;;;;;4.57;1.17;;;;;;;6.86;92.94;100448.03;5027740;28;20025;-78
2022/11/24 05:23:56;;;;;;;5.93;1.20;;;;;;;6.83;92.96;100449.78;5022155;28;21063;-78
2022/11/24 05:26:21;;;;;;;5.20;1.38;;;;;;;6.84;92.95;100459.25;5028318;28;20024;-80
2022/11/24 05:28:46;;;;;;;7.82;1.30;;;;;;;6.86;92.76;100468.72;5028480;28;20021;-78
2022/11/24 05:31:11;;;;;;;9.88;1.20;;;;;;;6.88;93.17;100461.78;5030919;28;20029;-78
2022/11/24 05:33:37;;;;;;;8.75;1.35;;;;;;;6.88;92.91;100466.97;5023872;28;20030;-78
2022/11/24 05:36:04;;;;;;;6.82;1.23;;;;;;;6.88;92.67;100461.78;5027909;28;20021;-79
2022/11/24 05:38:30;;;;;;;6.60;1.42;;;;;;;6.88;92.83;100466.97;5023123;28;20029;-79
2022/11/24 05:41:04;;;;;;;6.82;1.42;;;;;;;6.90;92.74;100472.97;5022425;28;20037;-79
2022/11/24 05:43:29;;;;;;;5.70;1.02;;;;;;;6.87;93.05;100467.84;5020577;28;20457;-78
2022/11/24 05:45:59;;;;;;;4.28;0.98;;;;;;;6.87;92.85;100470.41;5029522;28;20102;-79
2022/11/24 05:48:24;;;;;;;6.45;1.42;;;;;;;6.87;93.16;100478.19;5026036;28;20020;-79
2022/11/24 05:50:57;;;;;;;5.43;1.33;;;;;;;6.89;93.46;100484.19;5024168;28;20030;-79
2022/11/24 05:53:24;;;;;;;6.20;1.50;;;;;;;6.89;93.14;100489.34;5024317;28;20030;-79
2022/11/24 05:55:49;;;;;;;6.40;1.13;;;;;;;6.88;93.26;100482.47;5032997;28;20022;-78
2022/11/24 05:58:15;;;;;;;6.95;1.05;;;;;;;6.88;93.74;100492.81;5030839;22;20053;-79
2022/11/24 06:00:40;;;;;;;5.85;1.35;;;;;;;6.90;93.43;100496.22;5028427;28;20037;-78
2022/11/24 06:03:06;;;;;;;7.35;1.60;;;;;;;6.91;93.72;100504.00;5028942;28;20470;-78
2022/11/24 06:05:31;;;;;;;6.03;1.23;;;;;;;6.89;93.58;100492.81;5029697;28;20044;-78
2022/11/24 06:07:58;;;;;;;6.15;1.30;;;;;;;6.89;94.03;100503.16;5028152;28;20104;-78
2022/11/24 06:10:23;;;;;;;4.75;1.20;;;;;;;6.90;94.02;100511.75;5026083;28;20035;-78
2022/11/24 06:12:49;;;;;;;8.65;1.70;;;;;;;6.90;93.80;100506.56;5029452;28;20104;-78
2022/11/24 06:15:14;;;;;;;6.82;1.70;;;;;;;6.92;94.06;100515.16;5025891;28;20044;-78
2022/11/24 06:17:39;;;;;;;9.00;1.48;;;;;;;6.92;93.82;100525.50;5028779;28;20025;-78
2022/11/24 06:20:06;;;;;;;5.05;1.58;;;;;;;6.94;93.35;100524.59;5026555;28;20029;-78
2022/11/24 06:22:32;;;;;;;9.88;1.80;;;;;;;6.96;93.53;100537.53;5025753;28;20025;-78
2022/11/24 06:24:57;;;;;;;5.78;1.33;;;;;;;6.94;93.64;100532.34;5026769;28;20026;-78
2022/11/24 06:27:22;;;;;;;10.40;1.58;;;;;;;6.94;93.80;100539.28;5008870;28;20037;-78
2022/11/24 06:29:47;;;;;;;8.10;1.88;;;;;;;6.95;93.08;100536.66;5025121;28;20108;-78
2022/11/24 06:32:13;;;;;;;8.60;1.85;;;;;;;6.96;93.27;100547.88;5029128;28;20025;-78
2022/11/24 06:34:38;;;;;;;7.50;1.60;;;;;;;6.96;93.51;100560.81;5031202;28;20033;-78
2022/11/24 06:37:04;;;;;;;9.27;1.77;;;;;;;6.99;93.30;100568.53;5026268;28;20056;-78
2022/11/24 06:39:29;;;;;;;6.95;1.73;;;;;;;6.99;93.01;100584.88;5030513;28;20039;-78
2022/11/24 06:41:54;;;;;;;6.13;1.48;;;;;;;7.02;92.72;100586.56;5030136;28;20534;-78
2022/11/24 06:44:21;;;;;;;10.45;1.60;;;;;;;7.03;92.52;100583.09;5031424;28;20068;-78
2022/11/24 06:46:47;;;;;;;9.00;1.92;;;;;;;7.04;92.56;100582.22;5014193;28;20384;-78
2022/11/24 06:49:12;;;;;;;5.88;1.50;;;;;;;7.04;92.31;100589.97;5028791;28;20026;-78
2022/11/24 06:51:37;;;;;;;6.22;1.40;;;;;;;7.03;91.96;100601.19;5021845;28;20547;-78
2022/11/24 06:54:06;;;;;;;8.18;1.55;;;;;;;7.01;92.02;100602.09;5027635;28;20041;-78
2022/11/24 06:56:32;;;;;;;7.53;1.60;;;;;;;7.01;91.63;100610.72;5031725;28;20480;-78
2022/11/24 06:58:57;;;;;;;9.48;1.60;;;;;;;7.01;91.50;100613.28;5031130;28;20045;-78
2022/11/24 07:01:25;;;;;;;5.60;1.35;;;;;;;7.03;91.72;100621.06;5030829;28;20033;-78
2022/11/24 07:03:51;;;;;;;4.03;1.33;;;;;;;7.02;91.14;100627.94;5029388;28;20036;-78
2022/11/24 07:06:18;;;;;;;6.43;1.58;;;;;;;7.03;90.95;100636.56;5026837;28;20037;-78
2022/11/24 07:08:43;;;;;;;5.32;1.20;;;;;;;7.02;91.06;100647.78;5032684;28;20032;-78
2022/11/24 07:11:12;;;;;;;5.85;1.20;;;;;;;7.00;90.90;100650.41;5023676;28;20048;-78
2022/11/24 07:13:37;;;;;;;4.68;1.10;;;;;;;6.97;90.85;100646.13;5028780;28;20108;-78
2022/11/24 07:16:18;;;;;;;6.05;1.08;;;;;;;6.97;90.70;100658.22;5029270;28;20091;-78
2022/11/24 07:18:44;;;;;;;3.33;1.10;;;;;;;6.93;90.65;100672.06;5028280;28;20033;-78
2022/11/24 07:21:10;;;;;;;3.45;1.23;;;;;;;6.91;90.75;100663.44;5020561;28;20178;-78
2022/11/24 07:23:36;;;;;;;4.25;1.10;;;;;;;6.90;90.63;100669.50;5021284;28;20061;-78
2022/11/24 07:26:03;;;;;;;3.50;0.90;;;;;;;6.89;90.50;100678.13;5031764;28;20040;-78
2022/11/24 07:28:29;;;;;;;4.40;1.00;;;;;;;6.88;90.42;100691.94;5027106;28;20515;-78
2022/11/24 07:30:55;;;;;;;4.90;1.15;;;;;;;6.90;90.55;100700.53;5029072;28;20029;-78
2022/11/24 07:33:23;;;;;;;4.10;1.13;;;;;;;6.90;90.57;100698.81;5021669;28;20022;-78
2022/11/24 07:35:52;;;;;;;4.85;1.20;;;;;;;6.89;90.60;100701.41;5010469;28;20030;-77
2022/11/24 07:38:18;;;;;;;6.53;1.02;;;;;;;6.88;90.38;100699.69;5033709;28;20025;-78
2022/11/24 07:40:43;;;;;;;7.18;1.27;;;;;;;6.86;90.33;100704.03;5035171;28;20521;-78
2022/11/24 07:43:08;;;;;;;3.25;1.00;;;;;;;6.86;90.20;100709.19;5036145;28;20499;-78
2022/11/24 07:45:33;;;;;;;5.13;0.98;;;;;;;6.87;90.17;100708.31;5035454;28;20040;-78
2022/11/24 07:47:59;;;;;;;2.58;0.63;;;;;;;6.86;90.14;100723.00;5026554;28;20021;-78
2022/11/24 07:50:24;;;;;;;6.22;0.77;;;;;;;6.87;90.15;100718.66;5020734;28;20037;-78
2022/11/24 07:52:49;;;;;;;3.92;0.82;;;;;;;6.87;90.43;100726.41;5013085;28;20075;-78
2022/11/24 07:55:15;;;;;;;3.63;0.70;;;;;;;6.90;90.51;100734.16;5033924;28;20765;-78
2022/11/24 07:57:40;;;;;;;5.13;0.98;;;;;;;6.90;90.50;100734.16;5028462;28;20381;-78
2022/11/24 08:00:06;;;;;;;6.38;0.80;;;;;;;6.89;90.96;100735.91;5007543;28;20054;-78
2022/11/24 08:02:32;;;;;;;2.97;0.70;;;;;;;6.92;91.08;100742.75;5003869;28;20038;-78
2022/11/24 08:04:58;;;;;;;3.60;0.75;;;;;;;6.91;90.86;100743.63;5004629;28;20059;-78
2022/11/24 08:07:23;;;;;;;2.17;0.75;;;;;;;6.87;91.06;100739.34;5002553;28;20034;-78
2022/11/24 08:09:52;;;;;;;3.50;1.05;;;;;;;6.83;91.11;100752.31;5009409;28;20044;-78
2022/11/24 08:12:20;;;;;;;4.50;0.70;;;;;;;6.79;91.08;100748.06;5012302;28;20088;-78
2022/11/24 08:14:49;;;;;;;2.85;0.73;;;;;;;6.74;91.11;100755.03;5012572;28;20026;-78
2022/11/24 08:17:15;;;;;;;2.92;0.80;;;;;;;6.72;91.10;100761.09;5013312;28;20113;-78
2022/11/24 08:19:40;;;;;;;3.70;0.73;;;;;;;6.70;91.15;100774.00;5013927;28;20072;-78
2022/11/24 08:22:06;;;;;;;2.30;0.73;;;;;;;6.70;91.21;100774.00;5005423;28;20026;-78
2022/11/24 08:24:31;;;;;;;3.72;0.80;;;;;;;6.71;91.12;100778.31;5012460;28;20026;-78
2022/11/24 08:26:56;;;;;;;3.45;0.82;;;;;;;6.70;91.52;100776.59;5007997;28;20030;-78
2022/11/24 08:29:21;;;;;;;5.40;0.90;;;;;;;6.70;91.25;100784.34;5015262;28;20029;-78
2022/11/24 08:31:47;;;;;;;7.97;0.98;;;;;;;6.71;91.40;100793.00;5006212;28;20034;-78
2022/11/24 08:34:12;;;;;;;2.05;0.70;;;;;;;6.71;91.30;100786.06;4998054;28;20034;-78
2022/11/24 08:36:37;;;;;;;4.68;1.00;;;;;;;6.72;91.34;100792.13;5008041;28;20468;-78
2022/11/24 08:39:03;;;;;;;7.18;1.10;;;;;;;6.73;90.80;100794.66;5007735;28;20030;-78
2022/11/24 08:41:30;;;;;;;3.70;0.80;;;;;;;6.74;91.06;100806.72;4996242;28;20033;-78
2022/11/24 08:43:55;;;;;;;6.97;1.00;;;;;;;6.73;90.78;100805.00;5005392;28;20559;-78
2022/11/24 08:46:20;;;;;;;3.88;0.95;;;;;;;6.75;90.70;100813.63;5008098;28;20133;-77
2022/11/24 08:48:53;;;;;;;7.97;0.98;;;;;;;6.76;90.97;100805.00;5011789;28;20034;-78
2022/11/24 08:51:22;;;;;;;7.38;1.00;;;;;;;6.80;90.74;100819.59;4997198;28;20477;-78
2022/11/24 08:53:47;;;;;;;5.20;1.20;;;;;;;6.82;90.61;100820.44;5001109;28;20033;-78
2022/11/24 08:56:13;;;;;;;5.63;1.23;;;;;;;6.85;90.17;100819.53;5008315;28;20031;-77
2022/11/24 08:58:39;;;;;;;5.25;1.30;;;;;;;6.86;90.35;100831.59;5005850;28;20038;-78
2022/11/24 09:01:04;;;;;;;6.47;1.10;;;;;;;6.90;90.17;100835.00;5033935;28;20079;-78
2022/11/24 09:03:29;;;;;;;10.32;1.30;;;;;;;6.93;90.19;100837.56;5029581;28;20068;-78
2022/11/24 09:05:55;;;;;;;8.98;1.27;;;;;;;6.95;90.16;100835.81;5030093;28;20384;-77
2022/11/24 09:08:20;;;;;;;8.98;1.33;;;;;;;6.99;90.09;100840.09;5027106;28;20026;-77
2022/11/24 09:10:45;;;;;;;3.42;0.82;;;;;;;7.02;89.84;100852.13;5034632;28;20065;-78
2022/11/24 09:13:11;;;;;;;3.58;0.80;;;;;;;7.01;90.29;100851.25;5033400;28;20033;-78
2022/11/24 09:15:36;;;;;;;7.45;1.25;;;;;;;7.03;89.92;100857.28;5030627;28;20399;-78
2022/11/24 09:18:01;;;;;;;6.75;1.00;;;;;;;7.07;89.97;100865.88;5029220;28;20437;-77
2022/11/24 09:20:26;;;;;;;5.45;0.95;;;;;;;7.08;89.81;100855.50;5015361;28;20034;-78
2022/11/24 09:22:52;;;;;;;6.72;1.30;;;;;;;7.10;89.37;100856.34;5015703;28;20025;-78
2022/11/24 09:25:17;;;;;;;5.75;1.05;;;;;;;7.10;89.58;100864.13;5020783;28;20120;-77
2022/11/24 09:27:42;;;;;;;5.95;0.85;;;;;;;7.14;89.48;100868.38;5032352;28;20021;-78
2022/11/24 09:30:08;;;;;;;9.35;1.25;;;;;;;7.18;89.39;100878.66;5028576;28;20040;-78
2022/11/24 09:32:34;;;;;;;6.30;1.20;;;;;;;7.19;89.24;100876.09;5029907;28;20029;-78
2022/11/24 09:34:59;;;;;;;8.05;1.40;;;;;;;7.21;89.61;100889.00;5022903;28;20017;-78
2022/11/24 09:37:24;;;;;;;5.30;0.98;;;;;;;7.23;89.09;100882.06;5007424;28;20573;-77
2022/11/24 09:39:49;;;;;;;9.32;1.38;;;;;;;7.23;89.55;100888.13;5028987;28;20040;-78
2022/11/24 09:42:53;;;;;;;5.68;1.15;;;;;;;7.26;89.79;100888.06;5000212;28;20044;-78
2022/11/24 09:45:44;;;;;;;5.85;1.77;;;;;;;7.28;89.88;100886.31;5016644;28;20036;-78
2022/11/24 09:48:26;;;;;;;6.53;1.27;;;;;;;7.32;89.65;100897.50;5015084;28;20022;-78
2022/11/24 09:50:52;;;;;;;4.78;1.10;;;;;;;7.34;89.52;100898.34;5016695;28;20018;-78
2022/11/24 09:53:36;;;;;;;6.40;1.55;;;;;;;7.36;89.92;100899.16;5018251;28;20033;-78
2022/11/24 09:56:16;;;;;;;8.27;1.35;;;;;;;7.40;89.37;100908.63;5020823;28;20030;-78
2022/11/24 09:58:50;;;;;;;6.60;1.45;;;;;;;7.42;89.08;100917.22;5017011;28;20396;-78
2022/11/24 10:01:29;;;;;;;7.05;1.35;;;;;;;7.44;89.22;100918.06;5022427;28;20112;-78
2022/11/24 10:03:55;;;;;;;5.20;1.17;;;;;;;7.47;88.98;100924.09;5015829;28;20025;-78
2022/11/24 10:06:49;;;;;;;7.22;1.42;;;;;;;7.50;89.43;100929.25;5032994;28;20029;-77
2022/11/24 10:09:23;;;;;;;5.60;1.90;;;;;;;7.53;89.19;100926.59;5017883;28;20108;-77
2022/11/24 10:12:43;;;;;;;6.32;1.65;;;;;;;7.58;89.33;100940.34;5024594;28;20036;-78
2022/11/24 10:15:24;;;;;;;5.22;1.40;;;;;;;7.60;88.73;100938.59;4934341;29;20046;-77
2022/11/24 10:18:07;;;;;;;5.18;1.40;;;;;;;7.62;88.75;100942.03;5019387;28;20046;-78
2022/11/24 10:20:45;;;;;;;7.80;1.50;;;;;;;7.65;88.71;100939.41;5026239;28;20098;-78
2022/11/24 10:23:29;;;;;;;8.95;1.60;;;;;;;7.70;88.64;100944.53;5028032;28;20025;-78
2022/11/24 10:25:54;;;;;;;8.75;1.75;;;;;;;7.72;88.60;100943.63;5024565;28;20033;-78
2022/11/24 10:28:19;;;;;;;4.90;1.30;;;;;;;7.74;88.31;100941.88;5029226;28;20024;-78
2022/11/24 10:30:45;;;;;;;8.80;1.70;;;;;;;7.78;88.35;100947.03;5025145;28;20385;-78
2022/11/24 10:33:18;;;;;;;6.97;1.33;;;;;;;7.79;88.04;100947.00;5027834;28;20028;-78
2022/11/24 10:35:49;;;;;;;15.20;1.67;;;;;;;7.82;87.71;100951.28;5035513;28;20813;-77
2022/11/24 10:38:24;;;;;;;6.43;1.75;;;;;;;7.85;87.71;100953.84;5027760;28;20032;-78
2022/11/24 10:41:34;;;;;;;7.75;2.15;;;;;;;7.89;88.02;100955.50;5024063;28;21916;-78
2022/11/24 10:43:59;;;;;;;7.05;1.60;;;;;;;7.94;88.13;100955.47;5007946;28;20052;-78
2022/11/24 10:46:27;;;;;;;10.68;1.80;;;;;;;7.97;88.06;100968.34;5025384;28;20530;-78
2022/11/24 10:48:57;;;;;;;9.45;1.90;;;;;;;8.00;87.52;100974.38;5020223;28;20029;-77
2022/11/24 10:51:31;;;;;;;7.47;1.73;;;;;;;8.03;87.24;100965.69;5029130;28;20067;-78
2022/11/24 10:54:04;;;;;;;10.43;1.73;;;;;;;8.07;87.47;100963.91;5028721;28;20044;-77
2022/11/24 10:56:38;;;;;;;11.63;1.63;;;;;;;8.10;87.58;100961.28;5021105;28;20538;-78
2022/11/24 10:59:23;;;;;;;5.63;1.55;;;;;;;8.14;87.18;100962.97;5021882;28;20120;-78
2022/11/24 11:01:50;;;;;;;5.50;1.40;;;;;;;8.14;86.85;100957.78;5025838;28;20123;-78
2022/11/24 11:04:24;;;;;;;6.43;1.63;;;;;;;8.17;86.64;100961.19;5010220;28;20044;-77
2022/11/24 11:06:50;;;;;;;7.05;2.08;;;;;;;8.22;86.49;100968.03;5020429;28;20032;-78
2022/11/24 11:09:20;;;;;;;10.82;1.63;;;;;;;8.23;86.43;100965.41;5019262;28;20108;-78
2022/11/24 11:11:50;;;;;;;11.23;1.88;;;;;;;8.28;86.56;100965.38;5020390;28;20496;-78
2022/11/24 11:14:30;;;;;;;6.53;1.40;;;;;;;8.30;86.46;100959.28;5026454;28;20030;-78
2022/11/24 11:16:56;;;;;;;12.68;2.00;;;;;;;8.33;85.95;100964.44;5026735;28;20041;-78
2022/11/24 11:19:39;;;;;;;8.82;1.80;;;;;;;8.38;86.23;100960.88;5019162;28;20032;-78
2022/11/24 11:22:29;;;;;;;6.88;1.20;;;;;;;8.39;86.15;100957.41;5028647;28;20476;-78
2022/11/24 11:25:23;;;;;;;10.05;1.60;;;;;;;8.42;85.39;100967.75;5029574;28;20029;-78
2022/11/24 11:27:49;;;;;;;9.13;1.60;;;;;;;8.44;85.37;100958.22;5005387;28;20417;-78
2022/11/24 11:30:14;;;;;;;8.88;2.15;;;;;;;8.48;85.45;100965.94;5021883;28;20094;-78
2022/11/24 11:32:53;;;;;;;9.15;1.80;;;;;;;8.52;86.15;100961.59;5028451;28;20056;-78
2022/11/24 11:35:18;;;;;;;9.10;1.60;;;;;;;8.54;85.28;100962.41;5032508;28;20119;-77
2022/11/24 11:37:45;;;;;;;7.15;1.27;;;;;;;8.59;85.14;100955.41;5033650;28;20104;-77